sensor_id;sensor_type;location;lat;lon;timestamp;temperature;humidity
47456;DHT22;33202;48.512;-2.780;2023-02-21T00:01:23;7.00;99.90
47456;DHT22;33202;48.512;-2.780;2023-02-21T00:04:07;7.00;99.90
47456;DHT22;33202;48.512;-2.780;2023-02-21T00:06:51;7.00;99.90
47456;DHT22;33202;48.512;-2.780;2023-02-21T00:09:37;7.00;99.90
47456;DHT22;33202;48.512;-2.780;2023-02-21T00:12:22;7.00;99.90
47456;DHT22;33202;48.512;-2.780;2023-02-21T00:15:06;7.00;99.90
47456;DHT22;33202;48.512;-2.780;2023-02-21T00:17:51;7.00;99.90
47456;DHT22;33202;48.512;-2.780;2023-02-21T00:20:35;7.00;99.90
47456;DHT22;33202;48.512;-2.780;2023-02-21T00:23:19;6.90;99.90
47456;DHT22;33202;48.512;-2.780;2023-02-21T00:26:03;6.90;99.90
47456;DHT22;33202;48.512;-2.780;2023-02-21T00:28:47;6.90;99.90
47456;DHT22;33202;48.512;-2.780;2023-02-21T00:31:31;6.90;99.90
47456;DHT22;33202;48.512;-2.780;2023-02-21T00:34:15;6.80;99.90
47456;DHT22;33202;48.512;-2.780;2023-02-21T00:36:59;6.90;99.90
47456;DHT22;33202;48.512;-2.780;2023-02-21T00:39:43;6.90;99.90
47456;DHT22;33202;48.512;-2.780;2023-02-21T00:42:27;6.90;99.90
47456;DHT22;33202;48.512;-2.780;2023-02-21T00:45:11;6.90;99.90
47456;DHT22;33202;48.512;-2.780;2023-02-21T00:47:56;6.90;99.90
47456;DHT22;33202;48.512;-2.780;2023-02-21T00:50:40;6.90;99.90
47456;DHT22;33202;48.512;-2.780;2023-02-21T00:53:24;6.90;99.90
47456;DHT22;33202;48.512;-2.780;2023-02-21T00:56:08;6.90;99.90
47456;DHT22;33202;48.512;-2.780;2023-02-21T00:58:52;6.90;99.90
47456;DHT22;33202;48.512;-2.780;2023-02-21T01:01:36;6.90;99.90
47456;DHT22;33202;48.512;-2.780;2023-02-21T01:04:20;6.90;99.90
47456;DHT22;33202;48.512;-2.780;2023-02-21T01:07:05;6.90;99.90
47456;DHT22;33202;48.512;-2.780;2023-02-21T01:09:49;6.90;99.90
47456;DHT22;33202;48.512;-2.780;2023-02-21T01:12:33;6.90;99.90
47456;DHT22;33202;48.512;-2.780;2023-02-21T01:15:17;6.90;99.90
47456;DHT22;33202;48.512;-2.780;2023-02-21T01:18:01;6.90;99.90
47456;DHT22;33202;48.512;-2.780;2023-02-21T01:20:45;6.90;99.90
47456;DHT22;33202;48.512;-2.780;2023-02-21T01:23:30;6.90;99.90
47456;DHT22;33202;48.512;-2.780;2023-02-21T01:26:15;7.00;99.90
47456;DHT22;33202;48.512;-2.780;2023-02-21T01:28:59;6.90;99.90
47456;DHT22;33202;48.512;-2.780;2023-02-21T01:31:43;6.90;99.90
47456;DHT22;33202;48.512;-2.780;2023-02-21T01:34:27;6.90;99.90
47456;DHT22;33202;48.512;-2.780;2023-02-21T01:37:11;6.90;99.90
47456;DHT22;33202;48.512;-2.780;2023-02-21T01:39:55;7.00;99.90
47456;DHT22;33202;48.512;-2.780;2023-02-21T01:42:39;7.00;99.90
47456;DHT22;33202;48.512;-2.780;2023-02-21T01:48:12;7.00;99.90
47456;DHT22;33202;48.512;-2.780;2023-02-21T01:50:59;7.00;99.90
47456;DHT22;33202;48.512;-2.780;2023-02-21T01:53:45;7.00;99.90
47456;DHT22;33202;48.512;-2.780;2023-02-21T01:56:30;7.00;99.90
47456;DHT22;33202;48.512;-2.780;2023-02-21T01:59:16;7.00;99.90
47456;DHT22;33202;48.512;-2.780;2023-02-21T02:02:43;7.00;99.90
47456;DHT22;33202;48.512;-2.780;2023-02-21T02:05:29;7.00;99.90
47456;DHT22;33202;48.512;-2.780;2023-02-21T02:08:13;6.90;99.90
47456;DHT22;33202;48.512;-2.780;2023-02-21T02:23:11;7.00;99.90
47456;DHT22;33202;48.512;-2.780;2023-02-21T02:37:04;7.00;99.90
47456;DHT22;33202;48.512;-2.780;2023-02-21T02:44:40;6.90;99.90
47456;DHT22;33202;48.512;-2.780;2023-02-21T02:47:12;6.90;99.90
47456;DHT22;33202;48.512;-2.780;2023-02-21T02:49:41;7.00;99.90
47456;DHT22;33202;48.512;-2.780;2023-02-21T02:52:08;6.90;99.90
47456;DHT22;33202;48.512;-2.780;2023-02-21T02:54:34;6.90;99.90
47456;DHT22;33202;48.512;-2.780;2023-02-21T02:57:02;6.90;99.90
47456;DHT22;33202;48.512;-2.780;2023-02-21T02:59:29;7.00;99.90
47456;DHT22;33202;48.512;-2.780;2023-02-21T03:02:28;7.00;99.90
47456;DHT22;33202;48.512;-2.780;2023-02-21T03:05:22;7.00;99.90
47456;DHT22;33202;48.512;-2.780;2023-02-21T03:07:53;7.00;99.90
47456;DHT22;33202;48.512;-2.780;2023-02-21T03:10:44;7.00;99.90
47456;DHT22;33202;48.512;-2.780;2023-02-21T03:13:21;7.00;99.90
47456;DHT22;33202;48.512;-2.780;2023-02-21T03:15:57;7.00;99.90
47456;DHT22;33202;48.512;-2.780;2023-02-21T03:18:38;7.00;99.90
47456;DHT22;33202;48.512;-2.780;2023-02-21T03:21:10;7.00;99.90
47456;DHT22;33202;48.512;-2.780;2023-02-21T03:23:38;7.00;99.90
47456;DHT22;33202;48.512;-2.780;2023-02-21T03:26:07;7.00;99.90
47456;DHT22;33202;48.512;-2.780;2023-02-21T03:28:35;7.00;99.90
47456;DHT22;33202;48.512;-2.780;2023-02-21T03:31:03;7.00;99.90
47456;DHT22;33202;48.512;-2.780;2023-02-21T03:33:30;6.90;99.90
47456;DHT22;33202;48.512;-2.780;2023-02-21T03:35:59;7.00;99.90
47456;DHT22;33202;48.512;-2.780;2023-02-21T03:38:29;7.00;99.90
47456;DHT22;33202;48.512;-2.780;2023-02-21T03:40:55;7.00;99.90
47456;DHT22;33202;48.512;-2.780;2023-02-21T03:43:21;7.00;99.90
47456;DHT22;33202;48.512;-2.780;2023-02-21T03:45:47;7.00;99.90
47456;DHT22;33202;48.512;-2.780;2023-02-21T03:48:12;7.00;99.90
47456;DHT22;33202;48.512;-2.780;2023-02-21T03:50:38;7.00;99.90
47456;DHT22;33202;48.512;-2.780;2023-02-21T03:53:04;7.00;99.90
47456;DHT22;33202;48.512;-2.780;2023-02-21T03:55:29;7.00;99.90
47456;DHT22;33202;48.512;-2.780;2023-02-21T03:57:55;7.00;99.90
47456;DHT22;33202;48.512;-2.780;2023-02-21T04:00:21;7.00;99.90
47456;DHT22;33202;48.512;-2.780;2023-02-21T04:02:46;7.00;99.90
47456;DHT22;33202;48.512;-2.780;2023-02-21T04:05:12;7.00;99.90
47456;DHT22;33202;48.512;-2.780;2023-02-21T04:07:38;7.00;99.90
47456;DHT22;33202;48.512;-2.780;2023-02-21T04:10:04;6.90;99.90
47456;DHT22;33202;48.512;-2.780;2023-02-21T04:12:30;6.90;99.90
47456;DHT22;33202;48.512;-2.780;2023-02-21T04:14:55;6.90;99.90
47456;DHT22;33202;48.512;-2.780;2023-02-21T04:17:23;7.00;99.90
47456;DHT22;33202;48.512;-2.780;2023-02-21T04:19:49;6.90;99.90
47456;DHT22;33202;48.512;-2.780;2023-02-21T04:22:14;6.90;99.90
47456;DHT22;33202;48.512;-2.780;2023-02-21T04:24:40;6.90;99.90
47456;DHT22;33202;48.512;-2.780;2023-02-21T04:27:07;6.80;99.90
47456;DHT22;33202;48.512;-2.780;2023-02-21T04:29:33;6.80;99.90
47456;DHT22;33202;48.512;-2.780;2023-02-21T04:31:58;6.80;99.90
47456;DHT22;33202;48.512;-2.780;2023-02-21T04:34:24;6.80;99.90
47456;DHT22;33202;48.512;-2.780;2023-02-21T04:36:50;6.80;99.90
47456;DHT22;33202;48.512;-2.780;2023-02-21T04:39:15;6.80;99.90
47456;DHT22;33202;48.512;-2.780;2023-02-21T04:41:41;6.80;99.90
47456;DHT22;33202;48.512;-2.780;2023-02-21T04:44:07;6.80;99.90
47456;DHT22;33202;48.512;-2.780;2023-02-21T04:46:33;6.80;99.90
47456;DHT22;33202;48.512;-2.780;2023-02-21T04:48:59;6.80;99.90
47456;DHT22;33202;48.512;-2.780;2023-02-21T04:51:25;6.80;99.90
47456;DHT22;33202;48.512;-2.780;2023-02-21T04:53:52;6.80;99.90
47456;DHT22;33202;48.512;-2.780;2023-02-21T04:56:20;6.80;99.90
47456;DHT22;33202;48.512;-2.780;2023-02-21T04:58:46;6.80;99.90
47456;DHT22;33202;48.512;-2.780;2023-02-21T05:01:13;6.80;99.90
47456;DHT22;33202;48.512;-2.780;2023-02-21T05:03:39;6.80;99.90
47456;DHT22;33202;48.512;-2.780;2023-02-21T05:06:05;6.80;99.90
47456;DHT22;33202;48.512;-2.780;2023-02-21T05:08:30;6.80;99.90
47456;DHT22;33202;48.512;-2.780;2023-02-21T05:10:56;6.80;99.90
47456;DHT22;33202;48.512;-2.780;2023-02-21T05:13:21;6.80;99.90
47456;DHT22;33202;48.512;-2.780;2023-02-21T05:15:47;6.80;99.90
47456;DHT22;33202;48.512;-2.780;2023-02-21T05:18:14;6.80;99.90
47456;DHT22;33202;48.512;-2.780;2023-02-21T05:20:48;6.80;99.90
47456;DHT22;33202;48.512;-2.780;2023-02-21T05:23:14;6.70;99.90
47456;DHT22;33202;48.512;-2.780;2023-02-21T05:25:41;6.70;99.90
47456;DHT22;33202;48.512;-2.780;2023-02-21T05:28:07;6.80;99.90
47456;DHT22;33202;48.512;-2.780;2023-02-21T05:30:33;6.70;99.90
47456;DHT22;33202;48.512;-2.780;2023-02-21T05:32:58;6.70;99.90
47456;DHT22;33202;48.512;-2.780;2023-02-21T05:35:25;6.70;99.90
47456;DHT22;33202;48.512;-2.780;2023-02-21T05:37:50;6.70;99.90
47456;DHT22;33202;48.512;-2.780;2023-02-21T05:40:16;6.60;99.90
47456;DHT22;33202;48.512;-2.780;2023-02-21T05:42:42;6.60;99.90
47456;DHT22;33202;48.512;-2.780;2023-02-21T05:45:09;6.60;99.90
47456;DHT22;33202;48.512;-2.780;2023-02-21T05:47:34;6.60;99.90
47456;DHT22;33202;48.512;-2.780;2023-02-21T05:50:00;6.60;99.90
47456;DHT22;33202;48.512;-2.780;2023-02-21T05:52:26;6.60;99.90
47456;DHT22;33202;48.512;-2.780;2023-02-21T05:54:52;6.60;99.90
47456;DHT22;33202;48.512;-2.780;2023-02-21T05:57:19;6.60;99.90
47456;DHT22;33202;48.512;-2.780;2023-02-21T05:59:44;6.60;99.90
47456;DHT22;33202;48.512;-2.780;2023-02-21T06:02:13;6.60;99.90
47456;DHT22;33202;48.512;-2.780;2023-02-21T06:04:38;6.60;99.90
47456;DHT22;33202;48.512;-2.780;2023-02-21T06:07:04;6.60;99.90
47456;DHT22;33202;48.512;-2.780;2023-02-21T06:09:30;6.60;99.90
47456;DHT22;33202;48.512;-2.780;2023-02-21T06:11:56;6.60;99.90
47456;DHT22;33202;48.512;-2.780;2023-02-21T06:14:22;6.60;99.90
47456;DHT22;33202;48.512;-2.780;2023-02-21T06:16:48;6.60;99.90
47456;DHT22;33202;48.512;-2.780;2023-02-21T06:19:14;6.60;99.90
47456;DHT22;33202;48.512;-2.780;2023-02-21T06:21:41;6.60;99.90
47456;DHT22;33202;48.512;-2.780;2023-02-21T06:24:07;6.60;99.90
47456;DHT22;33202;48.512;-2.780;2023-02-21T06:26:33;6.50;99.90
47456;DHT22;33202;48.512;-2.780;2023-02-21T06:28:59;6.50;99.90
47456;DHT22;33202;48.512;-2.780;2023-02-21T06:31:25;6.50;99.90
47456;DHT22;33202;48.512;-2.780;2023-02-21T06:33:51;6.50;99.90
47456;DHT22;33202;48.512;-2.780;2023-02-21T06:36:20;6.50;99.90
47456;DHT22;33202;48.512;-2.780;2023-02-21T06:38:47;6.60;99.90
47456;DHT22;33202;48.512;-2.780;2023-02-21T06:41:17;6.60;99.90
47456;DHT22;33202;48.512;-2.780;2023-02-21T06:43:43;6.60;99.90
47456;DHT22;33202;48.512;-2.780;2023-02-21T06:46:08;6.60;99.90
47456;DHT22;33202;48.512;-2.780;2023-02-21T06:48:34;6.50;99.90
47456;DHT22;33202;48.512;-2.780;2023-02-21T06:50:59;6.50;99.90
47456;DHT22;33202;48.512;-2.780;2023-02-21T06:53:25;6.50;99.90
47456;DHT22;33202;48.512;-2.780;2023-02-21T06:55:51;6.60;99.90
47456;DHT22;33202;48.512;-2.780;2023-02-21T06:58:17;6.50;99.90
47456;DHT22;33202;48.512;-2.780;2023-02-21T07:00:43;6.50;99.90
47456;DHT22;33202;48.512;-2.780;2023-02-21T07:03:08;6.60;99.90
47456;DHT22;33202;48.512;-2.780;2023-02-21T07:05:34;6.50;99.90
47456;DHT22;33202;48.512;-2.780;2023-02-21T07:08:03;6.60;99.90
47456;DHT22;33202;48.512;-2.780;2023-02-21T07:10:29;6.60;99.90
47456;DHT22;33202;48.512;-2.780;2023-02-21T07:12:55;6.60;99.90
47456;DHT22;33202;48.512;-2.780;2023-02-21T07:15:22;6.60;99.90
47456;DHT22;33202;48.512;-2.780;2023-02-21T07:17:48;6.60;99.90
47456;DHT22;33202;48.512;-2.780;2023-02-21T07:20:14;6.60;99.90
47456;DHT22;33202;48.512;-2.780;2023-02-21T07:22:40;6.60;99.90
47456;DHT22;33202;48.512;-2.780;2023-02-21T07:25:06;6.60;99.90
47456;DHT22;33202;48.512;-2.780;2023-02-21T07:27:31;6.60;99.90
47456;DHT22;33202;48.512;-2.780;2023-02-21T07:29:57;6.50;99.90
47456;DHT22;33202;48.512;-2.780;2023-02-21T07:32:23;6.50;99.90
47456;DHT22;33202;48.512;-2.780;2023-02-21T07:34:48;6.50;99.90
47456;DHT22;33202;48.512;-2.780;2023-02-21T07:37:14;6.50;99.90
47456;DHT22;33202;48.512;-2.780;2023-02-21T07:39:40;6.50;99.90
47456;DHT22;33202;48.512;-2.780;2023-02-21T07:42:06;6.50;99.90
47456;DHT22;33202;48.512;-2.780;2023-02-21T07:44:34;6.50;99.90
47456;DHT22;33202;48.512;-2.780;2023-02-21T07:47:00;6.50;99.90
47456;DHT22;33202;48.512;-2.780;2023-02-21T07:49:25;6.50;99.90
47456;DHT22;33202;48.512;-2.780;2023-02-21T07:51:51;6.50;99.90
47456;DHT22;33202;48.512;-2.780;2023-02-21T07:54:17;6.50;99.90
47456;DHT22;33202;48.512;-2.780;2023-02-21T07:56:47;6.50;99.90
47456;DHT22;33202;48.512;-2.780;2023-02-21T07:59:14;6.50;99.90
47456;DHT22;33202;48.512;-2.780;2023-02-21T08:01:40;6.50;99.90
47456;DHT22;33202;48.512;-2.780;2023-02-21T08:04:05;6.50;99.90
47456;DHT22;33202;48.512;-2.780;2023-02-21T08:06:33;6.50;99.90
47456;DHT22;33202;48.512;-2.780;2023-02-21T08:08:59;6.50;99.90
47456;DHT22;33202;48.512;-2.780;2023-02-21T08:11:25;6.50;99.90
47456;DHT22;33202;48.512;-2.780;2023-02-21T08:13:51;6.50;99.90
47456;DHT22;33202;48.512;-2.780;2023-02-21T08:16:16;6.50;99.90
47456;DHT22;33202;48.512;-2.780;2023-02-21T08:18:42;6.50;99.90
47456;DHT22;33202;48.512;-2.780;2023-02-21T08:21:10;6.60;99.90
47456;DHT22;33202;48.512;-2.780;2023-02-21T08:23:36;6.50;99.90
47456;DHT22;33202;48.512;-2.780;2023-02-21T08:26:05;6.60;99.90
47456;DHT22;33202;48.512;-2.780;2023-02-21T08:28:31;6.50;99.90
47456;DHT22;33202;48.512;-2.780;2023-02-21T08:30:56;6.50;99.90
47456;DHT22;33202;48.512;-2.780;2023-02-21T08:33:22;6.60;99.90
47456;DHT22;33202;48.512;-2.780;2023-02-21T08:35:48;6.60;99.90
47456;DHT22;33202;48.512;-2.780;2023-02-21T08:38:14;6.60;99.90
47456;DHT22;33202;48.512;-2.780;2023-02-21T08:40:39;6.70;99.90
47456;DHT22;33202;48.512;-2.780;2023-02-21T08:43:05;6.70;99.90
47456;DHT22;33202;48.512;-2.780;2023-02-21T08:45:31;6.70;99.90
47456;DHT22;33202;48.512;-2.780;2023-02-21T08:47:57;6.70;99.90
47456;DHT22;33202;48.512;-2.780;2023-02-21T08:50:25;6.70;99.90
47456;DHT22;33202;48.512;-2.780;2023-02-21T08:52:51;6.70;99.90
47456;DHT22;33202;48.512;-2.780;2023-02-21T08:55:18;6.70;99.90
47456;DHT22;33202;48.512;-2.780;2023-02-21T08:57:46;6.70;99.90
47456;DHT22;33202;48.512;-2.780;2023-02-21T09:00:13;6.70;99.90
47456;DHT22;33202;48.512;-2.780;2023-02-21T09:02:39;6.70;99.90
47456;DHT22;33202;48.512;-2.780;2023-02-21T09:05:14;6.70;99.90
47456;DHT22;33202;48.512;-2.780;2023-02-21T09:07:40;6.70;99.90
47456;DHT22;33202;48.512;-2.780;2023-02-21T09:10:07;6.80;99.90
47456;DHT22;33202;48.512;-2.780;2023-02-21T09:12:35;6.80;99.90
47456;DHT22;33202;48.512;-2.780;2023-02-21T09:15:02;6.90;99.90
47456;DHT22;33202;48.512;-2.780;2023-02-21T09:17:27;6.90;99.90
47456;DHT22;33202;48.512;-2.780;2023-02-21T09:19:53;6.90;99.90
47456;DHT22;33202;48.512;-2.780;2023-02-21T09:22:19;7.00;99.90
47456;DHT22;33202;48.512;-2.780;2023-02-21T09:24:44;7.00;99.90
47456;DHT22;33202;48.512;-2.780;2023-02-21T09:27:10;7.00;99.90
47456;DHT22;33202;48.512;-2.780;2023-02-21T09:29:36;7.10;99.90
47456;DHT22;33202;48.512;-2.780;2023-02-21T09:32:03;7.10;99.90
47456;DHT22;33202;48.512;-2.780;2023-02-21T09:34:29;7.20;99.90
47456;DHT22;33202;48.512;-2.780;2023-02-21T09:36:55;7.20;99.90
47456;DHT22;33202;48.512;-2.780;2023-02-21T09:39:22;7.20;99.90
47456;DHT22;33202;48.512;-2.780;2023-02-21T09:41:49;7.20;99.90
47456;DHT22;33202;48.512;-2.780;2023-02-21T09:44:21;7.20;99.90
47456;DHT22;33202;48.512;-2.780;2023-02-21T09:47:06;7.20;99.90
47456;DHT22;33202;48.512;-2.780;2023-02-21T09:49:39;7.20;99.90
47456;DHT22;33202;48.512;-2.780;2023-02-21T09:52:23;7.30;99.90
47456;DHT22;33202;48.512;-2.780;2023-02-21T09:54:55;7.30;99.90
47456;DHT22;33202;48.512;-2.780;2023-02-21T09:57:22;7.40;99.90
47456;DHT22;33202;48.512;-2.780;2023-02-21T09:59:48;7.50;99.90
47456;DHT22;33202;48.512;-2.780;2023-02-21T10:05:02;7.60;99.90
47456;DHT22;33202;48.512;-2.780;2023-02-21T10:07:54;7.70;99.90
47456;DHT22;33202;48.512;-2.780;2023-02-21T10:10:37;7.70;99.90
47456;DHT22;33202;48.512;-2.780;2023-02-21T10:13:21;7.80;99.90
47456;DHT22;33202;48.512;-2.780;2023-02-21T10:16:07;7.80;99.90
47456;DHT22;33202;48.512;-2.780;2023-02-21T10:18:51;7.90;99.90
47456;DHT22;33202;48.512;-2.780;2023-02-21T10:21:29;8.00;99.90
47456;DHT22;33202;48.512;-2.780;2023-02-21T10:23:58;8.00;99.90
47456;DHT22;33202;48.512;-2.780;2023-02-21T10:26:36;8.00;99.90
47456;DHT22;33202;48.512;-2.780;2023-02-21T10:29:24;8.00;99.90
47456;DHT22;33202;48.512;-2.780;2023-02-21T10:31:54;8.10;99.90
47456;DHT22;33202;48.512;-2.780;2023-02-21T10:34:26;8.20;99.90
47456;DHT22;33202;48.512;-2.780;2023-02-21T10:36:54;8.30;99.90
47456;DHT22;33202;48.512;-2.780;2023-02-21T10:39:51;8.30;99.90
47456;DHT22;33202;48.512;-2.780;2023-02-21T10:42:28;8.40;99.90
47456;DHT22;33202;48.512;-2.780;2023-02-21T10:44:55;8.50;99.90
47456;DHT22;33202;48.512;-2.780;2023-02-21T10:47:25;8.60;99.90
47456;DHT22;33202;48.512;-2.780;2023-02-21T10:49:59;8.60;99.90
47456;DHT22;33202;48.512;-2.780;2023-02-21T10:52:26;8.60;99.90
47456;DHT22;33202;48.512;-2.780;2023-02-21T10:57:24;8.70;99.90
47456;DHT22;33202;48.512;-2.780;2023-02-21T10:59:51;8.80;99.90
47456;DHT22;33202;48.512;-2.780;2023-02-21T11:02:40;8.80;99.90
47456;DHT22;33202;48.512;-2.780;2023-02-21T11:05:29;8.80;99.90
47456;DHT22;33202;48.512;-2.780;2023-02-21T11:08:06;8.80;99.90
47456;DHT22;33202;48.512;-2.780;2023-02-21T11:10:38;8.90;99.90
47456;DHT22;33202;48.512;-2.780;2023-02-21T11:13:13;8.90;99.90
47456;DHT22;33202;48.512;-2.780;2023-02-21T11:15:39;8.90;99.90
47456;DHT22;33202;48.512;-2.780;2023-02-21T11:20:42;8.90;99.90
47456;DHT22;33202;48.512;-2.780;2023-02-21T11:23:37;8.90;99.90
47456;DHT22;33202;48.512;-2.780;2023-02-21T11:26:10;8.90;99.90
47456;DHT22;33202;48.512;-2.780;2023-02-21T11:28:44;8.90;99.90
47456;DHT22;33202;48.512;-2.780;2023-02-21T11:33:59;8.90;99.90
47456;DHT22;33202;48.512;-2.780;2023-02-21T11:36:31;9.00;99.90
47456;DHT22;33202;48.512;-2.780;2023-02-21T11:41:52;9.00;99.90
47456;DHT22;33202;48.512;-2.780;2023-02-21T11:46:51;9.10;99.90
47456;DHT22;33202;48.512;-2.780;2023-02-21T11:54:28;9.20;99.90
47456;DHT22;33202;48.512;-2.780;2023-02-21T11:57:09;9.20;99.90
47456;DHT22;33202;48.512;-2.780;2023-02-21T12:00:15;9.20;99.90
47456;DHT22;33202;48.512;-2.780;2023-02-21T12:03:17;9.20;99.90
47456;DHT22;33202;48.512;-2.780;2023-02-21T12:05:50;9.30;99.90
47456;DHT22;33202;48.512;-2.780;2023-02-21T12:30:49;9.90;99.90
47456;DHT22;33202;48.512;-2.780;2023-02-21T12:43:49;10.30;99.90
47456;DHT22;33202;48.512;-2.780;2023-02-21T12:46:34;10.30;99.90
47456;DHT22;33202;48.512;-2.780;2023-02-21T12:51:59;10.30;99.90
47456;DHT22;33202;48.512;-2.780;2023-02-21T12:57:13;10.40;99.90
47456;DHT22;33202;48.512;-2.780;2023-02-21T13:05:24;10.50;99.90
47456;DHT22;33202;48.512;-2.780;2023-02-21T13:08:00;10.50;99.90
47456;DHT22;33202;48.512;-2.780;2023-02-21T13:10:47;10.50;97.40
47456;DHT22;33202;48.512;-2.780;2023-02-21T13:13:32;10.50;97.00
47456;DHT22;33202;48.512;-2.780;2023-02-21T13:16:06;10.60;98.40
47456;DHT22;33202;48.512;-2.780;2023-02-21T13:18:53;10.70;97.70
47456;DHT22;33202;48.512;-2.780;2023-02-21T13:24:42;10.80;95.50
47456;DHT22;33202;48.512;-2.780;2023-02-21T13:27:30;10.80;90.50
47456;DHT22;33202;48.512;-2.780;2023-02-21T13:30:10;10.90;91.20
47456;DHT22;33202;48.512;-2.780;2023-02-21T13:32:38;10.90;90.20
47456;DHT22;33202;48.512;-2.780;2023-02-21T13:35:05;11.00;92.10
47456;DHT22;33202;48.512;-2.780;2023-02-21T13:37:34;11.10;83.90
47456;DHT22;33202;48.512;-2.780;2023-02-21T13:40:31;11.10;81.80
47456;DHT22;33202;48.512;-2.780;2023-02-21T13:45:31;11.20;84.00
47456;DHT22;33202;48.512;-2.780;2023-02-21T13:53:24;11.30;68.60
47456;DHT22;33202;48.512;-2.780;2023-02-21T13:56:11;11.30;68.10
47456;DHT22;33202;48.512;-2.780;2023-02-21T13:58:38;11.20;78.90
47456;DHT22;33202;48.512;-2.780;2023-02-21T14:01:42;11.20;79.10
47456;DHT22;33202;48.512;-2.780;2023-02-21T14:07:11;11.20;81.80
47456;DHT22;33202;48.512;-2.780;2023-02-21T14:09:39;11.20;90.20
47456;DHT22;33202;48.512;-2.780;2023-02-21T14:12:06;11.20;92.30
47456;DHT22;33202;48.512;-2.780;2023-02-21T14:14:36;11.20;92.30
47456;DHT22;33202;48.512;-2.780;2023-02-21T14:17:07;11.20;94.50
47456;DHT22;33202;48.512;-2.780;2023-02-21T14:19:50;11.30;95.10
47456;DHT22;33202;48.512;-2.780;2023-02-21T14:22:23;11.30;96.60
47456;DHT22;33202;48.512;-2.780;2023-02-21T14:24:51;11.30;97.10
47456;DHT22;33202;48.512;-2.780;2023-02-21T14:32:45;11.20;99.90
47456;DHT22;33202;48.512;-2.780;2023-02-21T14:35:35;11.20;99.70
47456;DHT22;33202;48.512;-2.780;2023-02-21T14:38:05;11.10;97.70
47456;DHT22;33202;48.512;-2.780;2023-02-21T14:52:07;10.90;99.90
47456;DHT22;33202;48.512;-2.780;2023-02-21T14:55:20;10.90;99.90
47456;DHT22;33202;48.512;-2.780;2023-02-21T15:03:04;10.90;99.90
47456;DHT22;33202;48.512;-2.780;2023-02-21T15:08:24;10.90;99.90
47456;DHT22;33202;48.512;-2.780;2023-02-21T15:10:53;10.90;99.90
47456;DHT22;33202;48.512;-2.780;2023-02-21T15:13:32;10.80;99.90
47456;DHT22;33202;48.512;-2.780;2023-02-21T15:16:09;10.80;99.90
47456;DHT22;33202;48.512;-2.780;2023-02-21T15:18:37;10.70;99.90
47456;DHT22;33202;48.512;-2.780;2023-02-21T15:21:19;10.70;99.90
47456;DHT22;33202;48.512;-2.780;2023-02-21T15:23:47;10.60;99.90
47456;DHT22;33202;48.512;-2.780;2023-02-21T15:26:21;10.50;99.90
47456;DHT22;33202;48.512;-2.780;2023-02-21T15:29:03;10.50;99.90
47456;DHT22;33202;48.512;-2.780;2023-02-21T15:31:35;10.40;99.90
47456;DHT22;33202;48.512;-2.780;2023-02-21T15:34:01;10.40;99.90
47456;DHT22;33202;48.512;-2.780;2023-02-21T15:36:28;10.40;99.90
47456;DHT22;33202;48.512;-2.780;2023-02-21T15:41:32;10.40;99.90
47456;DHT22;33202;48.512;-2.780;2023-02-21T15:46:28;10.40;99.90
47456;DHT22;33202;48.512;-2.780;2023-02-21T15:48:59;10.50;99.90
47456;DHT22;33202;48.512;-2.780;2023-02-21T15:51:27;10.50;99.90
47456;DHT22;33202;48.512;-2.780;2023-02-21T15:54:08;10.50;99.90
47456;DHT22;33202;48.512;-2.780;2023-02-21T15:56:34;10.50;99.90
47456;DHT22;33202;48.512;-2.780;2023-02-21T16:01:36;10.60;99.90
47456;DHT22;33202;48.512;-2.780;2023-02-21T16:04:16;10.60;99.90
47456;DHT22;33202;48.512;-2.780;2023-02-21T16:06:47;10.50;99.90
47456;DHT22;33202;48.512;-2.780;2023-02-21T16:11:45;10.50;99.90
47456;DHT22;33202;48.512;-2.780;2023-02-21T16:16:43;10.50;99.90
47456;DHT22;33202;48.512;-2.780;2023-02-21T16:19:08;10.50;99.90
47456;DHT22;33202;48.512;-2.780;2023-02-21T16:21:34;10.50;99.90
47456;DHT22;33202;48.512;-2.780;2023-02-21T16:24:35;10.50;99.90
47456;DHT22;33202;48.512;-2.780;2023-02-21T16:27:03;10.50;99.90
47456;DHT22;33202;48.512;-2.780;2023-02-21T16:29:29;10.60;99.90
47456;DHT22;33202;48.512;-2.780;2023-02-21T16:31:55;10.60;99.90
47456;DHT22;33202;48.512;-2.780;2023-02-21T16:34:21;10.60;99.90
47456;DHT22;33202;48.512;-2.780;2023-02-21T16:36:46;10.60;99.90
47456;DHT22;33202;48.512;-2.780;2023-02-21T16:39:12;10.60;99.90
47456;DHT22;33202;48.512;-2.780;2023-02-21T16:41:38;10.60;99.90
47456;DHT22;33202;48.512;-2.780;2023-02-21T16:44:03;10.60;99.90
47456;DHT22;33202;48.512;-2.780;2023-02-21T16:46:29;10.60;99.90
47456;DHT22;33202;48.512;-2.780;2023-02-21T16:48:55;10.70;99.90
47456;DHT22;33202;48.512;-2.780;2023-02-21T16:51:21;10.70;99.90
47456;DHT22;33202;48.512;-2.780;2023-02-21T16:53:47;10.60;99.90
47456;DHT22;33202;48.512;-2.780;2023-02-21T16:56:13;10.70;99.90
47456;DHT22;33202;48.512;-2.780;2023-02-21T16:58:47;10.70;99.90
47456;DHT22;33202;48.512;-2.780;2023-02-21T17:01:24;10.70;99.90
47456;DHT22;33202;48.512;-2.780;2023-02-21T17:03:50;10.70;99.90
47456;DHT22;33202;48.512;-2.780;2023-02-21T17:06:20;10.70;99.90
47456;DHT22;33202;48.512;-2.780;2023-02-21T17:08:46;10.70;99.90
47456;DHT22;33202;48.512;-2.780;2023-02-21T17:11:12;10.70;99.90
47456;DHT22;33202;48.512;-2.780;2023-02-21T17:13:37;10.70;99.90
47456;DHT22;33202;48.512;-2.780;2023-02-21T17:16:03;10.70;99.90
47456;DHT22;33202;48.512;-2.780;2023-02-21T17:18:29;10.70;99.90
47456;DHT22;33202;48.512;-2.780;2023-02-21T17:20:56;10.70;99.90
47456;DHT22;33202;48.512;-2.780;2023-02-21T17:23:23;10.70;99.90
47456;DHT22;33202;48.512;-2.780;2023-02-21T17:25:48;10.70;99.90
47456;DHT22;33202;48.512;-2.780;2023-02-21T17:28:14;10.70;99.90
47456;DHT22;33202;48.512;-2.780;2023-02-21T17:30:40;10.70;99.90
47456;DHT22;33202;48.512;-2.780;2023-02-21T17:33:05;10.70;99.90
47456;DHT22;33202;48.512;-2.780;2023-02-21T17:35:32;10.70;99.90
47456;DHT22;33202;48.512;-2.780;2023-02-21T17:37:58;10.70;99.90
47456;DHT22;33202;48.512;-2.780;2023-02-21T17:40:27;10.70;99.90
47456;DHT22;33202;48.512;-2.780;2023-02-21T17:42:53;10.70;99.90
47456;DHT22;33202;48.512;-2.780;2023-02-21T17:45:20;10.70;99.90
47456;DHT22;33202;48.512;-2.780;2023-02-21T17:47:47;10.70;99.90
47456;DHT22;33202;48.512;-2.780;2023-02-21T17:50:13;10.70;99.90
47456;DHT22;33202;48.512;-2.780;2023-02-21T17:52:39;10.70;99.90
47456;DHT22;33202;48.512;-2.780;2023-02-21T17:55:06;10.70;99.90
47456;DHT22;33202;48.512;-2.780;2023-02-21T17:57:37;10.70;99.90
47456;DHT22;33202;48.512;-2.780;2023-02-21T18:00:07;10.70;99.90
47456;DHT22;33202;48.512;-2.780;2023-02-21T18:02:35;10.70;99.90
47456;DHT22;33202;48.512;-2.780;2023-02-21T18:05:01;10.70;99.90
47456;DHT22;33202;48.512;-2.780;2023-02-21T18:07:26;10.70;99.90
47456;DHT22;33202;48.512;-2.780;2023-02-21T18:09:59;10.70;99.90
47456;DHT22;33202;48.512;-2.780;2023-02-21T18:12:25;10.70;99.90
47456;DHT22;33202;48.512;-2.780;2023-02-21T18:14:51;10.70;99.90
47456;DHT22;33202;48.512;-2.780;2023-02-21T18:17:17;10.70;99.90
47456;DHT22;33202;48.512;-2.780;2023-02-21T18:19:43;10.70;99.90
47456;DHT22;33202;48.512;-2.780;2023-02-21T18:22:08;10.70;99.90
47456;DHT22;33202;48.512;-2.780;2023-02-21T18:24:34;10.80;99.90